Time;durP1;ratioP1;P1;durP2;ratioP2;P2;SDS_P1;SDS_P2;PMS_P1;PMS_P2;Temp;Humidity;BMP_temperature;BMP_pressure;BME280_temperature;BME280_humidity;BME280_pressure;Samples;Min_cycle;Max_cycle;Signal;HPM_P1;HPM_P2
2022/07/07 00:00:54;;;;;;;9.02;4.20;;;25.40;99.90;;;;;;4849493;29;20037;-91
2022/07/07 00:03:20;;;;;;;6.47;4.00;;;25.40;99.90;;;;;;4849597;29;20025;-90
2022/07/07 00:05:46;;;;;;;9.52;4.07;;;25.30;99.90;;;;;;4849389;29;20048;-91
2022/07/07 00:08:13;;;;;;;9.70;4.10;;;25.30;99.90;;;;;;4849434;29;20021;-90
2022/07/07 00:10:39;;;;;;;10.13;4.10;;;25.30;99.90;;;;;;4849448;29;20033;-90
2022/07/07 00:13:06;;;;;;;10.43;3.88;;;25.20;99.90;;;;;;4849257;29;20063;-91
2022/07/07 00:15:32;;;;;;;7.75;4.07;;;25.20;99.90;;;;;;4849218;29;20119;-91
2022/07/07 00:17:59;;;;;;;7.07;3.72;;;25.10;99.90;;;;;;4849324;29;20025;-94
2022/07/07 00:20:26;;;;;;;11.35;4.20;;;25.10;99.90;;;;;;4849862;29;20127;-91
2022/07/07 00:22:52;;;;;;;7.15;3.72;;;25.10;99.90;;;;;;4849496;29;20178;-91
2022/07/07 00:25:22;;;;;;;7.60;3.30;;;25.10;99.90;;;;;;4849137;29;20045;-91
2022/07/07 00:27:48;;;;;;;9.77;3.92;;;25.10;99.90;;;;;;4849206;29;20116;-91
2022/07/07 00:30:15;;;;;;;7.45;3.40;;;25.10;99.90;;;;;;4849118;29;20047;-90
2022/07/07 00:32:41;;;;;;;6.68;3.13;;;25.10;99.90;;;;;;4848939;29;20031;-91
2022/07/07 00:35:08;;;;;;;11.45;3.35;;;25.10;99.90;;;;;;4848868;29;20029;-92
2022/07/07 00:37:35;;;;;;;7.57;3.50;;;25.10;99.90;;;;;;4848392;29;20436;-91
2022/07/07 00:40:02;;;;;;;9.30;3.60;;;25.10;99.90;;;;;;4848904;29;20040;-90
2022/07/07 00:42:28;;;;;;;9.20;3.38;;;25.10;99.90;;;;;;4848983;29;20068;-90
2022/07/07 00:44:55;;;;;;;7.40;3.28;;;25.10;99.90;;;;;;4848656;29;20522;-91
2022/07/07 00:47:21;;;;;;;10.43;3.42;;;25.10;99.90;;;;;;4848531;29;20177;-90
2022/07/07 00:49:48;;;;;;;10.15;4.00;;;25.10;99.90;;;;;;4848769;29;20068;-90
2022/07/07 00:52:15;;;;;;;5.95;3.30;;;25.00;99.90;;;;;;4848961;29;20033;-91
2022/07/07 00:54:55;;;;;;;7.72;3.92;;;25.00;99.90;;;;;;4848903;29;20033;-91
2022/07/07 00:57:24;;;;;;;5.85;3.83;;;24.90;99.90;;;;;;4848649;29;20169;-90
2022/07/07 01:00:04;;;;;;;9.45;4.05;;;24.80;99.90;;;;;;4849095;29;20057;-91
2022/07/07 01:02:32;;;;;;;9.38;4.28;;;24.80;99.90;;;;;;4863947;29;20410;-91
2022/07/07 01:05:00;;;;;;;9.18;4.28;;;24.80;99.90;;;;;;4848377;29;20211;-92
2022/07/07 01:07:27;;;;;;;9.57;4.30;;;24.70;99.90;;;;;;4848666;29;20041;-91
2022/07/07 01:09:56;;;;;;;10.95;4.75;;;24.70;99.90;;;;;;4848677;29;20063;-93
2022/07/07 01:12:23;;;;;;;7.93;4.20;;;24.70;99.90;;;;;;4848501;29;20124;-90
2022/07/07 01:14:50;;;;;;;13.48;4.60;;;24.60;99.90;;;;;;4848386;29;20116;-92
2022/07/07 01:17:19;;;;;;;13.38;5.20;;;24.60;99.90;;;;;;4848572;29;20037;-91
2022/07/07 01:19:46;;;;;;;8.43;4.47;;;24.50;99.90;;;;;;4848533;29;20056;-91
2022/07/07 01:22:17;;;;;;;12.68;4.30;;;24.50;99.90;;;;;;4848573;29;20040;-92
2022/07/07 01:24:44;;;;;;;9.18;4.80;;;24.40;99.90;;;;;;4848247;29;20411;-91
2022/07/07 01:27:10;;;;;;;10.40;4.53;;;24.40;99.90;;;;;;4848508;29;20037;-91
2022/07/07 01:29:40;;;;;;;9.07;4.55;;;24.30;99.90;;;;;;4863935;29;20044;-91
2022/07/07 01:32:10;;;;;;;12.60;5.00;;;24.30;99.90;;;;;;4848398;29;20037;-91
2022/07/07 01:34:38;;;;;;;8.23;5.00;;;24.30;99.90;;;;;;4848751;29;20102;-94
2022/07/07 01:37:06;;;;;;;7.25;4.70;;;24.20;99.90;;;;;;4848471;29;20025;-91
2022/07/07 01:39:33;;;;;;;11.70;4.80;;;24.20;99.90;;;;;;4848180;29;20038;-90
2022/07/07 01:42:00;;;;;;;7.82;4.72;;;24.20;99.90;;;;;;4848244;29;20037;-92
2022/07/07 01:44:29;;;;;;;7.35;4.22;;;24.20;99.90;;;;;;4848291;29;20037;-90
2022/07/07 01:46:56;;;;;;;11.35;5.40;;;24.20;99.90;;;;;;4863474;29;20037;-91
2022/07/07 01:49:23;;;;;;;8.95;4.95;;;24.20;99.90;;;;;;4851021;29;20037;-91
2022/07/07 01:51:49;;;;;;;7.28;4.90;;;24.20;99.90;;;;;;4851913;29;20047;-93
2022/07/07 01:54:15;;;;;;;8.23;4.55;;;24.20;99.90;;;;;;4851863;29;20103;-91
2022/07/07 01:56:42;;;;;;;11.13;4.43;;;24.30;99.90;;;;;;4851637;29;20035;-91
2022/07/07 01:59:09;;;;;;;8.07;4.43;;;24.30;99.90;;;;;;4851688;29;20139;-91
2022/07/07 02:01:36;;;;;;;7.60;4.38;;;24.30;99.90;;;;;;4851640;29;20029;-92
2022/07/07 02:04:03;;;;;;;11.00;4.60;;;24.30;99.90;;;;;;4851600;29;20067;-91
2022/07/07 02:06:30;;;;;;;9.93;4.22;;;24.40;99.90;;;;;;4851416;29;20494;-90
2022/07/07 02:08:56;;;;;;;8.05;4.40;;;24.40;99.90;;;;;;4867011;29;20093;-90
2022/07/07 02:11:23;;;;;;;8.43;4.28;;;24.40;99.90;;;;;;4851687;29;20477;-90
2022/07/07 02:13:52;;;;;;;8.95;4.05;;;24.30;99.90;;;;;;4851608;29;20036;-91
2022/07/07 02:16:21;;;;;;;9.57;4.25;;;24.30;99.90;;;;;;4851476;29;20089;-92
2022/07/07 02:18:53;;;;;;;12.00;4.03;;;24.20;99.90;;;;;;4851248;29;20128;-91
2022/07/07 02:21:22;;;;;;;6.43;3.78;;;24.20;99.90;;;;;;4851365;29;20025;-91
2022/07/07 02:23:49;;;;;;;9.73;4.13;;;24.20;99.90;;;;;;4866494;29;20053;-92
2022/07/07 02:26:17;;;;;;;6.55;3.65;;;24.20;99.90;;;;;;4851164;29;20045;-90
2022/07/07 02:28:44;;;;;;;9.00;3.92;;;24.10;99.90;;;;;;4866665;29;20032;-91
2022/07/07 02:31:14;;;;;;;12.23;4.05;;;24.10;99.90;;;;;;4851344;29;20400;-92
2022/07/07 02:33:41;;;;;;;9.05;3.53;;;24.00;99.90;;;;;;4851116;29;20032;-92
2022/07/07 02:36:09;;;;;;;8.80;3.67;;;24.00;99.90;;;;;;4850888;29;20575;-93
2022/07/07 02:38:37;;;;;;;10.18;4.07;;;24.00;99.90;;;;;;4851449;29;20033;-90
2022/07/07 02:41:05;;;;;;;5.80;3.80;;;24.00;99.90;;;;;;4852897;29;20043;-91
2022/07/07 02:43:33;;;;;;;7.65;3.88;;;24.00;99.90;;;;;;4851083;29;20036;-92
2022/07/07 02:46:00;;;;;;;10.20;3.83;;;24.00;99.90;;;;;;4850856;29;20510;-90
2022/07/07 02:48:27;;;;;;;9.10;4.10;;;23.90;99.90;;;;;;4850930;29;20427;-89
2022/07/07 02:50:54;;;;;;;7.65;4.32;;;23.90;99.90;;;;;;4851059;29;20032;-91
2022/07/07 02:53:22;;;;;;;8.88;3.50;;;23.90;99.90;;;;;;4851026;29;20167;-91
2022/07/07 02:55:49;;;;;;;8.63;4.35;;;23.90;99.90;;;;;;4852096;29;20576;-91
2022/07/07 02:58:19;;;;;;;8.00;3.50;;;23.90;99.90;;;;;;4853759;29;20037;-91
2022/07/07 03:00:47;;;;;;;6.78;3.22;;;23.90;99.90;;;;;;4850211;29;20037;-90
2022/07/07 03:03:15;;;;;;;8.30;3.58;;;23.90;99.90;;;;;;4850838;29;20488;-91
2022/07/07 03:05:42;;;;;;;7.00;3.80;;;23.80;99.90;;;;;;4850549;29;20061;-92
2022/07/07 03:08:08;;;;;;;5.50;3.53;;;23.80;99.90;;;;;;4850666;29;20033;-93
2022/07/07 03:10:35;;;;;;;6.72;3.15;;;23.80;99.90;;;;;;4850570;29;20059;-92
2022/07/07 03:13:02;;;;;;;9.80;3.42;;;23.80;99.90;;;;;;4850556;29;20437;-91
2022/07/07 03:15:30;;;;;;;8.57;3.63;;;23.80;99.90;;;;;;4850455;29;20029;-92
2022/07/07 03:17:56;;;;;;;4.88;3.22;;;23.80;99.90;;;;;;4850617;29;20029;-94
2022/07/07 03:20:24;;;;;;;10.43;4.07;;;23.80;99.90;;;;;;4850377;29;20039;-92
2022/07/07 03:22:51;;;;;;;6.28;3.38;;;23.80;99.90;;;;;;4850128;29;20115;-93
2022/07/07 03:25:17;;;;;;;9.18;3.20;;;23.80;99.90;;;;;;4850486;29;20037;-95
2022/07/07 03:27:44;;;;;;;9.05;3.28;;;23.80;99.90;;;;;;4850249;29;20028;-94
2022/07/07 03:30:12;;;;;;;6.13;3.78;;;23.80;99.90;;;;;;4850022;29;20045;-93
2022/07/07 03:32:39;;;;;;;8.40;3.95;;;23.90;99.90;;;;;;4850055;29;20048;-92
2022/07/07 03:35:08;;;;;;;9.30;3.63;;;23.90;99.90;;;;;;4850447;29;20040;-91
2022/07/07 03:37:36;;;;;;;8.32;3.63;;;24.00;99.90;;;;;;4849904;29;20040;-92
2022/07/07 03:40:06;;;;;;;9.85;3.70;;;24.10;99.90;;;;;;4849911;29;20509;-92
2022/07/07 03:42:35;;;;;;;10.32;3.90;;;24.10;99.90;;;;;;4850010;29;20108;-92
2022/07/07 03:45:02;;;;;;;9.65;4.00;;;24.10;99.90;;;;;;4865221;29;20049;-92
2022/07/07 03:47:29;;;;;;;6.43;3.78;;;24.00;99.90;;;;;;4849870;29;20040;-93
2022/07/07 03:49:56;;;;;;;11.13;4.47;;;24.00;99.90;;;;;;4849699;29;20060;-91
2022/07/07 03:52:22;;;;;;;8.70;3.83;;;24.10;99.90;;;;;;4849652;29;20033;-92
2022/07/07 03:54:48;;;;;;;6.85;3.75;;;24.10;99.90;;;;;;4849479;29;20088;-90
2022/07/07 03:57:15;;;;;;;12.98;3.83;;;24.20;99.90;;;;;;4849611;29;20399;-92
2022/07/07 03:59:42;;;;;;;10.40;3.90;;;24.20;99.90;;;;;;4849492;29;20029;-92
2022/07/07 04:02:09;;;;;;;8.60;3.70;;;24.20;99.90;;;;;;4849655;29;20029;-92
2022/07/07 04:04:36;;;;;;;8.85;3.67;;;24.20;99.90;;;;;;4849481;29;20113;-92
2022/07/07 04:07:03;;;;;;;8.35;3.95;;;24.30;99.90;;;;;;4849481;29;20062;-91
2022/07/07 04:09:29;;;;;;;8.43;4.05;;;24.30;99.90;;;;;;4849583;29;20052;-91
2022/07/07 04:11:59;;;;;;;10.82;4.38;;;24.40;99.90;;;;;;4848572;29;20499;-91
2022/07/07 04:14:26;;;;;;;12.48;4.30;;;24.40;99.90;;;;;;4849341;29;20036;-94
2022/07/07 04:16:53;;;;;;;10.52;4.43;;;24.40;99.90;;;;;;4849427;29;20479;-91
2022/07/07 04:19:19;;;;;;;7.88;4.10;;;24.50;99.90;;;;;;4849599;29;20036;-92
2022/07/07 04:21:46;;;;;;;10.45;4.30;;;24.60;99.90;;;;;;4849126;29;20029;-91
2022/07/07 04:24:13;;;;;;;9.55;4.30;;;24.70;99.90;;;;;;4849649;29;20057;-91
2022/07/07 04:26:39;;;;;;;10.98;4.97;;;24.70;99.90;;;;;;4851727;29;20504;-90
2022/07/07 04:29:06;;;;;;;14.05;4.90;;;24.80;99.90;;;;;;4849459;29;20052;-92
2022/07/07 04:31:32;;;;;;;11.43;5.28;;;24.90;99.90;;;;;;4849342;29;20032;-92
2022/07/07 04:33:59;;;;;;;7.93;4.68;;;25.00;99.90;;;;;;4848965;29;20028;-92
2022/07/07 04:36:25;;;;;;;12.13;4.80;;;25.10;99.90;;;;;;4848958;29;20104;-91
2022/07/07 04:38:52;;;;;;;8.57;4.32;;;25.40;99.90;;;;;;4849137;29;20033;-90
2022/07/07 04:41:18;;;;;;;9.07;4.15;;;25.60;99.90;;;;;;4848990;29;20037;-91
2022/07/07 04:43:45;;;;;;;11.90;4.50;;;26.40;99.90;;;;;;4848901;29;20033;-91
2022/07/07 04:46:12;;;;;;;7.05;3.72;;;27.80;99.90;;;;;;4849833;29;20037;-92
2022/07/07 04:48:39;;;;;;;9.05;3.58;;;29.20;99.90;;;;;;4849388;29;20072;-91
2022/07/07 04:51:06;;;;;;;11.32;3.60;;;30.40;99.90;;;;;;4848739;29;20082;-91
2022/07/07 04:53:32;;;;;;;6.90;3.60;;;31.30;99.90;;;;;;4848694;29;20032;-90
2022/07/07 04:55:58;;;;;;;7.18;3.40;;;31.90;99.90;;;;;;4848996;29;20033;-92
2022/07/07 04:58:25;;;;;;;9.45;3.55;;;31.90;99.90;;;;;;4849200;29;20035;-90
2022/07/07 05:00:51;;;;;;;8.57;3.70;;;32.40;99.90;;;;;;4849178;29;20029;-91
2022/07/07 05:03:18;;;;;;;8.27;3.58;;;32.50;99.90;;;;;;4848561;29;20033;-92
2022/07/07 05:05:44;;;;;;;8.20;3.58;;;32.90;99.90;;;;;;4848652;29;20491;-91
2022/07/07 05:08:11;;;;;;;9.25;3.83;;;32.80;99.90;;;;;;4848474;29;20491;-92
2022/07/07 05:10:37;;;;;;;10.95;4.20;;;33.10;99.90;;;;;;4863842;29;20033;-92
2022/07/07 05:13:05;;;;;;;9.55;3.80;;;33.50;99.90;;;;;;4848694;29;20025;-91
2022/07/07 05:15:31;;;;;;;9.70;4.00;;;33.70;99.90;;;;;;4848353;29;20036;-94
2022/07/07 05:17:58;;;;;;;12.70;3.55;;;34.10;99.90;;;;;;4849348;29;20044;-91
2022/07/07 05:20:24;;;;;;;16.88;3.80;;;34.30;99.90;;;;;;4848368;29;20025;-90
2022/07/07 05:22:51;;;;;;;9.18;4.10;;;34.60;99.90;;;;;;4849163;29;20099;-91
2022/07/07 05:25:18;;;;;;;10.65;4.35;;;34.20;99.90;;;;;;4852265;29;20072;-91
2022/07/07 05:27:44;;;;;;;9.27;4.07;;;33.90;99.90;;;;;;4871327;29;20033;-91
2022/07/07 05:30:12;;;;;;;12.38;4.68;;;33.80;99.90;;;;;;4855875;29;20035;-92
2022/07/07 05:32:39;;;;;;;9.07;4.28;;;34.30;99.90;;;;;;4855389;29;20039;-92
2022/07/07 05:35:06;;;;;;;10.32;4.63;;;34.20;99.90;;;;;;4852443;29;20038;-92
2022/07/07 05:37:33;;;;;;;12.68;4.65;;;34.50;99.90;;;;;;4851969;29;20479;-93
2022/07/07 05:40:00;;;;;;;16.48;4.93;;;35.40;99.90;;;;;;4852032;29;20065;-93
2022/07/07 05:42:26;;;;;;;11.25;4.43;;;35.50;99.90;;;;;;4851862;29;20033;-93
2022/07/07 05:44:53;;;;;;;9.02;4.13;;;35.60;99.90;;;;;;4852172;29;20044;-93
2022/07/07 05:47:19;;;;;;;11.55;4.40;;;35.20;99.90;;;;;;4852066;29;20561;-92
2022/07/07 05:49:45;;;;;;;12.95;4.30;;;34.90;99.90;;;;;;4851963;29;20032;-91
2022/07/07 05:52:12;;;;;;;14.05;4.13;;;35.30;99.90;;;;;;4851784;29;20037;-92
2022/07/07 05:54:38;;;;;;;10.07;4.43;;;35.00;99.90;;;;;;4851872;29;20486;-93
2022/07/07 05:57:06;;;;;;;10.57;3.45;;;34.60;99.90;;;;;;4851537;29;20041;-93
2022/07/07 05:59:33;;;;;;;8.50;3.63;;;34.30;99.90;;;;;;4851698;29;20032;-94
2022/07/07 06:02:00;;;;;;;10.48;3.80;;;34.30;99.90;;;;;;4852151;29;20037;-92
2022/07/07 06:04:26;;;;;;;9.23;3.20;;;34.70;99.90;;;;;;4851526;29;20044;-92
2022/07/07 06:06:53;;;;;;;7.88;3.50;;;34.90;99.90;;;;;;4851372;29;20032;-92
2022/07/07 06:09:20;;;;;;;11.93;4.05;;;35.30;99.90;;;;;;4851499;29;20062;-91
2022/07/07 06:11:47;;;;;;;8.15;3.90;;;35.10;99.90;;;;;;4851442;29;20040;-93
2022/07/07 06:14:14;;;;;;;8.40;3.40;;;35.40;99.90;;;;;;4851316;29;20029;-91
2022/07/07 06:16:43;;;;;;;12.25;3.33;;;35.20;99.90;;;;;;4851476;29;20025;-94
2022/07/07 06:19:12;;;;;;;9.57;3.15;;;34.80;99.90;;;;;;4851535;29;20037;-92
2022/07/07 06:21:41;;;;;;;11.90;3.85;;;34.80;99.90;;;;;;4851380;29;20033;-92
2022/07/07 06:24:08;;;;;;;11.48;3.63;;;35.10;99.90;;;;;;4851325;29;20053;-92
2022/07/07 06:26:36;;;;;;;12.25;3.20;;;35.10;99.90;;;;;;4851290;29;20041;-91
2022/07/07 06:29:03;;;;;;;13.88;4.13;;;34.70;99.90;;;;;;4851461;29;20033;-91
2022/07/07 06:31:36;;;;;;;11.95;3.58;;;34.60;99.90;;;;;;4851158;29;20029;-93
2022/07/07 06:34:03;;;;;;;10.15;3.58;;;34.80;99.90;;;;;;4851091;29;20033;-93
2022/07/07 06:36:30;;;;;;;10.60;3.50;;;34.00;99.90;;;;;;4853133;29;20041;-93
2022/07/07 06:38:56;;;;;;;8.80;3.58;;;33.80;99.90;;;;;;4853035;29;20653;-93
2022/07/07 06:41:24;;;;;;;11.93;3.50;;;34.20;99.90;;;;;;4851623;29;20037;-93
2022/07/07 06:43:50;;;;;;;9.27;3.90;;;34.30;99.90;;;;;;4851500;29;20081;-93
2022/07/07 06:46:17;;;;;;;16.55;3.55;;;34.30;99.90;;;;;;4850834;29;20056;-93
2022/07/07 06:48:44;;;;;;;12.63;3.75;;;34.40;99.90;;;;;;4850693;29;20029;-93
2022/07/07 06:51:10;;;;;;;10.20;3.42;;;34.90;99.90;;;;;;4868812;29;20183;-94
2022/07/07 06:53:36;;;;;;;12.73;3.65;;;34.70;99.90;;;;;;4866308;29;20040;-93
2022/07/07 06:56:03;;;;;;;13.75;3.97;;;34.80;99.90;;;;;;4852204;29;20033;-93
2022/07/07 06:58:29;;;;;;;11.73;4.43;;;34.50;99.90;;;;;;4851187;29;20032;-93
2022/07/07 07:01:13;;;;;;;12.50;4.03;;;33.90;99.90;;;;;;4863862;29;20036;-94
2022/07/07 07:03:43;;;;;;;11.82;4.22;;;33.60;99.90;;;;;;4894465;23;20766;-94
2022/07/07 07:06:16;;;;;;;14.65;3.97;;;33.80;99.90;;;;;;4875206;29;20036;-94
2022/07/07 07:25:57;;;;;;;7.53;3.05;;;34.90;99.90;;;;;;4835126;29;20046;-93
2022/07/07 07:28:27;;;;;;;6.00;2.72;;;35.10;99.90;;;;;;4823172;29;20029;-94
2022/07/07 07:30:58;;;;;;;9.82;3.67;;;34.60;99.90;;;;;;4816542;29;20031;-93
2022/07/07 07:33:24;;;;;;;13.68;4.70;;;35.20;99.90;;;;;;4905987;24;20082;-90
2022/07/07 07:36:33;;;;;;;10.57;4.35;;;35.70;99.90;;;;;;4880198;29;20108;-94
2022/07/07 07:39:36;;;;;;;8.75;5.10;;;35.20;99.90;;;;;;5093688;23;20056;-94
2022/07/07 07:42:11;;;;;;;9.32;5.28;;;35.10;99.90;;;;;;4903166;29;20029;-94
2022/07/07 07:47:11;;;;;;;6.55;5.18;;;35.90;99.90;;;;;;4931227;23;20061;-94
2022/07/07 07:49:58;;;;;;;12.93;5.05;;;35.90;99.90;;;;;;4891716;29;20032;-94
2022/07/07 07:52:55;;;;;;;7.55;4.38;;;36.10;99.90;;;;;;4832386;29;20098;-95
2022/07/07 07:55:31;;;;;;;10.93;4.90;;;36.50;99.90;;;;;;4845463;29;20042;-94
2022/07/07 07:58:40;;;;;;;12.10;4.80;;;36.20;99.90;;;;;;4830424;29;20027;-94
2022/07/07 08:07:20;;;;;;;13.60;5.28;;;35.70;99.90;;;;;;5553816;23;20716;-94
2022/07/07 08:26:02;;;;;;;10.15;6.50;;;35.90;99.90;;;;;;5390923;23;20035;-94
2022/07/07 08:32:15;;;;;;;8.18;5.30;;;35.40;99.90;;;;;;4905093;23;20113;-93
2022/07/07 08:34:42;;;;;;;7.40;6.32;;;35.00;99.90;;;;;;4864192;29;20060;-93
2022/07/07 08:37:09;;;;;;;11.15;6.18;;;34.70;99.90;;;;;;4849309;29;20036;-93
2022/07/07 08:39:36;;;;;;;6.32;5.72;;;34.70;99.90;;;;;;4864617;29;20029;-93
2022/07/07 08:42:05;;;;;;;6.65;6.03;;;34.80;99.90;;;;;;4848220;29;20056;-92
2022/07/07 08:44:35;;;;;;;10.75;6.20;;;35.20;99.90;;;;;;4848128;29;20057;-93
2022/07/07 08:47:03;;;;;;;8.15;7.30;;;35.20;99.90;;;;;;4846247;29;20069;-94
2022/07/07 08:49:30;;;;;;;13.18;6.15;;;35.00;99.90;;;;;;4844775;29;20108;-92
2022/07/07 08:51:57;;;;;;;7.78;5.93;;;35.10;99.90;;;;;;4848019;29;20056;-93
2022/07/07 08:54:26;;;;;;;7.30;6.60;;;35.20;99.90;;;;;;4847839;29;20277;-93
2022/07/07 08:56:54;;;;;;;10.95;7.18;;;35.20;99.90;;;;;;4845057;29;20037;-91
2022/07/07 08:59:21;;;;;;;8.68;7.88;;;35.50;99.90;;;;;;4830049;29;20066;-92
2022/07/07 09:01:58;;;;;;;9.95;6.97;;;35.90;99.90;;;;;;4845532;29;20033;-93
2022/07/07 09:04:25;;;;;;;12.70;7.35;;;36.00;99.90;;;;;;4845343;29;20128;-93
2022/07/07 09:06:59;;;;;;;12.02;7.93;;;36.20;99.90;;;;;;4849196;29;20040;-91
2022/07/07 09:09:41;;;;;;;8.88;7.97;;;35.80;99.90;;;;;;4857871;29;20026;-93
2022/07/07 09:12:10;;;;;;;10.07;9.27;;;35.60;99.90;;;;;;4830336;29;20033;-92
2022/07/07 09:14:38;;;;;;;9.18;8.35;;;35.60;99.90;;;;;;4830131;29;20487;-94
2022/07/07 09:17:25;;;;;;;11.05;9.90;;;35.40;99.90;;;;;;4841286;29;20041;-92
2022/07/07 09:20:05;;;;;;;10.55;9.52;;;35.50;99.90;;;;;;4834860;29;20040;-91
2022/07/07 09:22:53;;;;;;;10.80;9.77;;;35.70;99.90;;;;;;4860123;29;20033;-93
2022/07/07 09:25:23;;;;;;;10.55;9.50;;;35.80;99.90;;;;;;4848309;29;20189;-92
2022/07/07 09:27:58;;;;;;;10.60;9.70;;;35.40;99.90;;;;;;4847873;29;20029;-92
2022/07/07 09:30:33;;;;;;;10.75;9.90;;;35.50;99.90;;;;;;4848775;29;20028;-94
2022/07/07 09:33:05;;;;;;;11.50;10.20;;;35.60;99.90;;;;;;4863477;29;20068;-93
2022/07/07 09:38:27;;;;;;;10.32;9.63;;;35.40;99.90;;;;;;4852707;29;20029;-95
2022/07/07 09:41:13;;;;;;;10.77;10.05;;;34.90;99.90;;;;;;4847042;29;20052;-94
2022/07/07 09:43:53;;;;;;;10.73;10.02;;;34.70;99.90;;;;;;4847313;29;20040;-93
2022/07/07 09:46:27;;;;;;;10.43;9.63;;;35.00;99.90;;;;;;4849445;29;20048;-91
2022/07/07 09:49:00;;;;;;;11.18;10.38;;;34.80;99.90;;;;;;4848104;29;20039;-94
2022/07/07 09:51:34;;;;;;;10.85;10.05;;;34.30;99.90;;;;;;4863923;29;20498;-92
2022/07/07 09:54:01;;;;;;;10.77;9.93;;;34.20;99.90;;;;;;4847918;29;20033;-93
2022/07/07 09:56:34;;;;;;;11.23;10.10;;;34.40;99.90;;;;;;4848103;29;20029;-92
2022/07/07 09:59:03;;;;;;;11.50;10.40;;;34.10;99.90;;;;;;4848251;29;20033;-93
2022/07/07 10:01:32;;;;;;;10.70;9.93;;;33.80;99.90;;;;;;4848116;29;20025;-91
2022/07/07 10:04:03;;;;;;;10.63;9.82;;;33.70;99.90;;;;;;4847893;29;20454;-92
2022/07/07 10:06:31;;;;;;;10.88;10.13;;;33.90;99.90;;;;;;4848004;29;20044;-91
2022/07/07 10:09:03;;;;;;;11.13;10.20;;;33.90;99.90;;;;;;4848870;29;20487;-92
2022/07/07 10:11:39;;;;;;;11.18;10.50;;;33.90;99.90;;;;;;4867012;29;20064;-93
2022/07/07 10:14:10;;;;;;;11.13;10.43;;;33.90;99.90;;;;;;4851513;29;20033;-93
2022/07/07 10:16:38;;;;;;;11.07;10.27;;;33.80;99.90;;;;;;4866786;29;20166;-92
2022/07/07 10:19:05;;;;;;;10.82;10.23;;;33.90;99.90;;;;;;4866787;29;20032;-92
2022/07/07 10:21:32;;;;;;;11.32;10.52;;;33.80;99.90;;;;;;4866631;29;20077;-93
2022/07/07 10:23:58;;;;;;;11.32;10.63;;;34.10;99.90;;;;;;4851225;29;20029;-92
2022/07/07 10:26:58;;;;;;;10.95;10.32;;;34.20;99.90;;;;;;4851178;29;20507;-94
2022/07/07 10:29:45;;;;;;;11.48;10.57;;;34.60;99.90;;;;;;4850995;29;20053;-91
2022/07/07 10:32:15;;;;;;;11.35;10.55;;;34.20;99.90;;;;;;4866164;29;20040;-91
2022/07/07 10:34:52;;;;;;;10.98;10.20;;;34.40;99.90;;;;;;4851501;29;20056;-93
2022/07/07 10:37:21;;;;;;;10.63;9.93;;;34.30;99.90;;;;;;4851317;29;20045;-92
2022/07/07 10:39:50;;;;;;;11.07;10.32;;;34.50;99.90;;;;;;4850951;29;20025;-91
2022/07/07 10:42:16;;;;;;;10.45;9.82;;;34.60;99.90;;;;;;4866536;29;20037;-91
2022/07/07 10:44:49;;;;;;;10.15;9.65;;;34.60;99.90;;;;;;4851043;29;20081;-94
2022/07/07 10:47:18;;;;;;;10.27;9.65;;;34.60;99.90;;;;;;4851084;29;20041;-93
2022/07/07 10:49:51;;;;;;;10.75;10.07;;;34.20;99.90;;;;;;4850876;29;20037;-93
2022/07/07 10:52:19;;;;;;;11.33;10.63;;;34.10;99.90;;;;;;4867087;29;20029;-94
2022/07/07 10:54:47;;;;;;;11.52;10.68;;;34.30;99.90;;;;;;4852928;29;20385;-91
2022/07/07 10:57:18;;;;;;;10.73;10.13;;;34.30;99.90;;;;;;4850810;29;20399;-93
2022/07/07 11:00:01;;;;;;;11.40;10.48;;;34.60;99.90;;;;;;4866217;29;20037;-92
2022/07/07 11:02:47;;;;;;;12.15;11.00;;;34.90;99.90;;;;;;4851737;29;20124;-92
2022/07/07 11:05:14;;;;;;;10.43;9.82;;;34.80;99.90;;;;;;4851302;29;20039;-93
2022/07/07 11:08:07;;;;;;;11.02;10.32;;;34.50;99.90;;;;;;4850584;29;20490;-94
2022/07/07 11:10:36;;;;;;;10.93;10.20;;;34.50;99.90;;;;;;4865965;29;20037;-93
2022/07/07 11:13:39;;;;;;;10.85;10.15;;;34.50;99.90;;;;;;4851392;29;20033;-92
2022/07/07 11:16:17;;;;;;;11.05;10.20;;;34.70;99.90;;;;;;4866260;29;20387;-94
2022/07/07 11:18:49;;;;;;;11.10;10.23;;;34.30;99.90;;;;;;4851877;29;20059;-93
2022/07/07 11:21:16;;;;;;;11.52;10.63;;;34.50;99.90;;;;;;4867824;29;20098;-93
2022/07/07 11:23:50;;;;;;;10.80;10.10;;;34.60;99.90;;;;;;4852746;29;20032;-93
2022/07/07 11:26:23;;;;;;;11.15;10.25;;;34.30;99.90;;;;;;4865967;29;20037;-93
2022/07/07 11:28:58;;;;;;;11.20;10.40;;;34.30;99.90;;;;;;4866052;29;20036;-94
2022/07/07 11:31:27;;;;;;;11.07;10.40;;;34.50;99.90;;;;;;4850915;29;20077;-94
2022/07/07 11:33:55;;;;;;;10.60;10.00;;;34.60;99.90;;;;;;4850308;29;20113;-92
2022/07/07 11:36:24;;;;;;;10.38;9.70;;;35.00;99.90;;;;;;4865638;29;20033;-92
2022/07/07 11:39:00;;;;;;;11.13;10.43;;;35.30;99.90;;;;;;4850368;29;20040;-94
2022/07/07 11:41:41;;;;;;;10.45;9.63;;;35.20;99.90;;;;;;4850187;29;20033;-95
2022/07/07 11:44:18;;;;;;;10.27;9.60;;;34.40;99.90;;;;;;4849879;29;20386;-93
2022/07/07 11:46:50;;;;;;;10.13;9.48;;;34.50;99.90;;;;;;4849774;29;20110;-94
2022/07/07 11:49:18;;;;;;;10.30;9.70;;;34.40;99.90;;;;;;4865503;29;20536;-92
2022/07/07 11:51:45;;;;;;;10.80;9.88;;;34.40;99.90;;;;;;4849666;29;20082;-94
2022/07/07 11:54:12;;;;;;;10.40;9.82;;;34.80;99.90;;;;;;4865254;29;20029;-92
2022/07/07 11:56:39;;;;;;;10.68;10.13;;;34.40;99.90;;;;;;4854145;29;20495;-92
2022/07/07 11:59:07;;;;;;;10.57;9.90;;;34.10;99.90;;;;;;4872750;29;20476;-91
2022/07/07 12:01:36;;;;;;;10.52;10.02;;;34.10;99.90;;;;;;4850722;29;20036;-93
2022/07/07 12:04:14;;;;;;;10.82;10.10;;;34.60;99.90;;;;;;4851006;29;20040;-90
2022/07/07 12:06:41;;;;;;;10.82;10.13;;;34.90;99.90;;;;;;4866120;29;20123;-90
2022/07/07 12:09:07;;;;;;;10.40;9.90;;;34.90;99.90;;;;;;4850917;29;20033;-92
2022/07/07 12:11:38;;;;;;;10.52;9.73;;;34.50;99.90;;;;;;4850791;29;20025;-92
2022/07/07 12:14:05;;;;;;;10.70;10.00;;;33.90;99.90;;;;;;4850880;29;20124;-93
2022/07/07 12:16:50;;;;;;;10.65;10.10;;;33.70;99.90;;;;;;4850886;29;20041;-91
2022/07/07 12:19:17;;;;;;;10.70;9.90;;;34.10;99.90;;;;;;4866216;29;20502;-90
2022/07/07 12:21:46;;;;;;;10.02;9.52;;;34.20;99.90;;;;;;4850710;29;20251;-91
2022/07/07 12:24:23;;;;;;;10.73;10.13;;;34.50;99.90;;;;;;4850848;29;20033;-92
2022/07/07 12:26:51;;;;;;;10.52;9.85;;;34.50;99.90;;;;;;4866026;29;20198;-91
2022/07/07 12:29:22;;;;;;;10.70;10.00;;;34.60;99.90;;;;;;4853598;29;20049;-92
2022/07/07 12:31:50;;;;;;;10.48;9.88;;;34.30;99.90;;;;;;4853132;29;20041;-92
2022/07/07 12:34:22;;;;;;;10.57;10.00;;;34.50;99.90;;;;;;4856092;29;20045;-91
2022/07/07 12:36:49;;;;;;;9.85;9.35;;;34.30;99.90;;;;;;4873802;29;20036;-91
2022/07/07 12:39:16;;;;;;;10.80;9.73;;;34.40;99.90;;;;;;4852501;29;20116;-91
2022/07/07 12:41:42;;;;;;;11.55;10.50;;;34.70;99.90;;;;;;4865873;29;20104;-92
2022/07/07 12:44:25;;;;;;;10.68;10.07;;;34.60;99.90;;;;;;4850303;29;20061;-91
2022/07/07 12:46:58;;;;;;;11.00;10.15;;;34.30;99.90;;;;;;4865561;29;20048;-92
2022/07/07 12:49:25;;;;;;;10.15;9.65;;;33.90;99.90;;;;;;4865558;29;20033;-91
2022/07/07 12:51:53;;;;;;;10.60;10.00;;;34.10;99.90;;;;;;4850564;29;20033;-90
2022/07/07 12:54:28;;;;;;;10.68;10.07;;;34.40;99.90;;;;;;4850566;29;20092;-92
2022/07/07 12:57:04;;;;;;;10.90;10.20;;;34.10;99.90;;;;;;4866169;29;20033;-93
2022/07/07 12:59:44;;;;;;;10.40;9.80;;;34.00;99.90;;;;;;4850293;29;20104;-92
2022/07/07 13:02:13;;;;;;;11.18;10.38;;;33.80;99.90;;;;;;4850949;29;20039;-92
2022/07/07 13:04:43;;;;;;;10.45;9.85;;;33.50;99.90;;;;;;4852362;29;20029;-93
2022/07/07 13:07:10;;;;;;;10.70;10.00;;;33.60;99.90;;;;;;4855002;29;20108;-91
2022/07/07 13:09:37;;;;;;;10.63;9.93;;;33.50;99.90;;;;;;4851050;29;20057;-94
2022/07/07 13:12:09;;;;;;;10.95;10.25;;;33.60;99.90;;;;;;4850949;29;20041;-93
2022/07/07 13:14:35;;;;;;;10.82;10.30;;;33.50;99.90;;;;;;4868286;29;20029;-94
2022/07/07 13:17:02;;;;;;;10.90;10.20;;;33.40;99.90;;;;;;4851202;29;20065;-93
2022/07/07 13:19:28;;;;;;;10.73;10.13;;;33.50;99.90;;;;;;4852539;29;20113;-93
2022/07/07 13:21:54;;;;;;;11.02;10.38;;;33.60;99.90;;;;;;4850514;29;20049;-92
2022/07/07 13:24:20;;;;;;;10.90;10.07;;;33.40;99.90;;;;;;4851970;29;20033;-93
2022/07/07 13:26:47;;;;;;;10.93;10.32;;;33.60;99.90;;;;;;4855164;29;20041;-92
2022/07/07 13:29:17;;;;;;;11.40;10.50;;;33.60;99.90;;;;;;4865331;29;20381;-94
2022/07/07 13:31:48;;;;;;;11.13;10.43;;;33.50;99.90;;;;;;4866894;29;20063;-93
2022/07/07 13:34:15;;;;;;;11.00;10.35;;;33.30;99.90;;;;;;4850606;29;20080;-92
2022/07/07 13:36:41;;;;;;;11.38;10.20;;;33.30;99.90;;;;;;4865338;29;20037;-92
2022/07/07 13:39:07;;;;;;;10.68;10.18;;;33.20;99.90;;;;;;4850121;29;20029;-93